Terminal Aerodrome Forecast
Issued by NWS Wakefield, VA

Home | Current Version | Previous Version | Text Only | Print | Product List | Glossary On
Versions: 1 2 3 4 5 6 7 8 9 10 11 12 13 14 15 16 17 18 19
000
FTUS41 KAKQ 301735
TAFRIC
TAF
KRIC 301735Z 3018/3118 13007KT P6SM OVC050
     FM310600 13006KT P6SM OVC030
     FM310900 14008KT P6SM SHRA OVC012
     FM311200 15009KT 3SM SHRA OVC010 WS020/17040KT
     FM311500 16010KT 3SM SHRA OVC005=

USA.gov is the U.S. government's official web portal to all federal, state and local government web resources and services.